Time;durP1;ratioP1;P1;durP2;ratioP2;P2;SDS_P1;SDS_P2;PMS_P1;PMS_P2;Temp;Humidity;BMP_temperature;BMP_pressure;BME280_temperature;BME280_humidity;BME280_pressure;Samples;Min_cycle;Max_cycle;Signal;HPM_P1;HPM_P2
2023/11/10 00:02:09;;;;;;;;;;;;;;;6.44;100.00;94617.16;10558269;27;2559;-74
2023/11/10 00:07:12;;;;;;;;;;;;;;;6.34;100.00;94621.75;10560162;27;2788;-69
2023/11/10 00:12:14;;;;;;;;;;;;;;;6.28;100.00;94620.97;10569237;27;2723;-70
2023/11/10 00:17:17;;;;;;;;;;;;;;;6.07;100.00;94625.59;10563408;27;2640;-70
2023/11/10 00:22:19;;;;;;;;;;;;;;;5.92;100.00;94617.69;10561368;27;2537;-70
2023/11/10 00:27:22;;;;;;;;;;;;;;;5.81;100.00;94606.19;10554114;27;2693;-70
2023/11/10 00:32:25;;;;;;;;;;;;;;;5.76;100.00;94592.09;10571218;27;2617;-73
2023/11/10 00:37:27;;;;;;;;;;;;;;;5.76;100.00;94587.53;10568808;27;2592;-69
2023/11/10 00:42:30;;;;;;;;;;;;;;;5.70;100.00;94584.09;10553771;27;4959;-70
2023/11/10 00:47:33;;;;;;;;;;;;;;;5.62;100.00;94581.19;10570655;27;2640;-70
2023/11/10 00:52:37;;;;;;;;;;;;;;;5.61;100.00;94568.94;10569657;27;2640;-69
2023/11/10 00:57:39;;;;;;;;;;;;;;;5.57;100.00;94562.56;10563964;27;2817;-69
2023/11/10 01:02:42;;;;;;;;;;;;;;;5.43;100.00;94554.34;10559796;28;2581;-70
2023/11/10 01:07:45;;;;;;;;;;;;;;;5.39;100.00;94547.94;10562725;28;2621;-70
2023/11/10 01:12:47;;;;;;;;;;;;;;;5.37;100.00;94542.88;10567293;28;2660;-71
2023/11/10 01:17:50;;;;;;;;;;;;;;;5.38;100.00;94541.00;10565317;28;2670;-71
2023/11/10 01:22:54;;;;;;;;;;;;;;;5.30;100.00;94533.59;10557792;28;2551;-69
2023/11/10 01:27:56;;;;;;;;;;;;;;;5.25;100.00;94515.72;10565799;28;2612;-69
2023/11/10 01:32:59;;;;;;;;;;;;;;;5.21;100.00;94511.22;10559873;28;2639;-70
2023/11/10 01:38:02;;;;;;;;;;;;;;;5.29;100.00;94500.81;10561670;28;2623;-69
2023/11/10 01:43:04;;;;;;;;;;;;;;;5.34;100.00;94484.81;10559902;28;4915;-69
2023/11/10 01:48:07;;;;;;;;;;;;;;;5.34;100.00;94487.47;10563766;28;2583;-69
2023/11/10 01:53:09;;;;;;;;;;;;;;;5.37;100.00;94481.59;10560214;27;2659;-71
2023/11/10 01:58:12;;;;;;;;;;;;;;;5.36;100.00;94469.34;10565233;27;2656;-71
2023/11/10 02:03:15;;;;;;;;;;;;;;;5.32;100.00;94462.16;10567868;27;2640;-71
2023/11/10 02:08:17;;;;;;;;;;;;;;;5.38;100.00;94445.88;10566787;27;2606;-70
2023/11/10 02:13:20;;;;;;;;;;;;;;;5.40;100.00;94435.72;10569915;27;2553;-69
2023/11/10 02:18:22;;;;;;;;;;;;;;;5.34;100.00;94439.50;10568737;27;2694;-70
2023/11/10 02:23:25;;;;;;;;;;;;;;;5.40;100.00;94434.94;10572022;27;2652;-71
2023/11/10 02:28:27;;;;;;;;;;;;;;;5.45;100.00;94424.25;10567776;27;2595;-70
2023/11/10 02:33:29;;;;;;;;;;;;;;;5.55;100.00;94424.22;10555672;27;2582;-70
2023/11/10 02:38:32;;;;;;;;;;;;;;;5.66;100.00;94420.44;10570620;27;2522;-69
2023/11/10 02:43:34;;;;;;;;;;;;;;;5.78;100.00;94412.06;10575971;27;4909;-70
2023/11/10 02:48:37;;;;;;;;;;;;;;;5.88;100.00;94405.88;10560148;27;2581;-72
2023/11/10 02:53:40;;;;;;;;;;;;;;;5.93;100.00;94409.34;10570680;27;2561;-70
2023/11/10 02:58:43;;;;;;;;;;;;;;;5.96;100.00;94395.44;10564163;27;2714;-67
2023/11/10 03:03:45;;;;;;;;;;;;;;;6.01;100.00;94399.16;10549746;27;2608;-71
2023/11/10 03:08:48;;;;;;;;;;;;;;;6.01;100.00;94393.81;10552306;27;2590;-74
2023/11/10 03:13:54;;;;;;;;;;;;;;;6.00;100.00;94392.25;10560669;27;2609;-69
2023/11/10 03:18:57;;;;;;;;;;;;;;;6.02;100.00;94385.53;10558741;27;2647;-71
2023/11/10 03:24:00;;;;;;;;;;;;;;;6.03;100.00;94386.34;10558207;27;2596;-70
2023/11/10 03:29:06;;;;;;;;;;;;;;;5.96;100.00;94382.09;10548932;27;2637;-70
2023/11/10 03:34:08;;;;;;;;;;;;;;;5.80;100.00;94366.50;10570626;27;2603;-71
2023/11/10 03:39:12;;;;;;;;;;;;;;;5.62;100.00;94378.59;10559693;27;2723;-69
2023/11/10 03:44:15;;;;;;;;;;;;;;;5.46;100.00;94401.06;10563981;27;4771;-70
2023/11/10 03:49:18;;;;;;;;;;;;;;;5.41;100.00;94397.38;10562392;27;2662;-69
2023/11/10 03:54:22;;;;;;;;;;;;;;;5.38;100.00;94395.25;10564869;27;2617;-71
2023/11/10 03:59:24;;;;;;;;;;;;;;;5.41;100.00;94410.69;10568943;27;2521;-71
2023/11/10 04:04:27;;;;;;;;;;;;;;;5.33;100.00;94411.25;10568371;27;2694;-69
2023/11/10 04:09:29;;;;;;;;;;;;;;;5.30;100.00;94425.13;10561780;27;2591;-71
2023/11/10 04:14:32;;;;;;;;;;;;;;;5.22;100.00;94419.59;10566205;27;2501;-69
2023/11/10 04:19:35;;;;;;;;;;;;;;;5.15;100.00;94410.03;10562292;27;2659;-75
2023/11/10 04:24:37;;;;;;;;;;;;;;;5.13;100.00;94409.47;10566775;27;2557;-74
2023/11/10 04:29:40;;;;;;;;;;;;;;;5.12;100.00;94399.09;10563816;27;2588;-68
2023/11/10 04:34:42;;;;;;;;;;;;;;;5.20;100.00;94405.72;10565890;27;2611;-69
2023/11/10 04:39:44;;;;;;;;;;;;;;;5.26;100.00;94389.44;10558580;27;2696;-69
2023/11/10 04:44:47;;;;;;;;;;;;;;;5.27;100.00;94379.56;10561900;27;4863;-69
2023/11/10 04:49:50;;;;;;;;;;;;;;;5.26;100.00;94378.78;10566874;27;2631;-69
2023/11/10 04:54:52;;;;;;;;;;;;;;;5.29;100.00;94383.56;10563724;27;2576;-71
2023/11/10 04:59:55;;;;;;;;;;;;;;;5.28;100.00;94387.31;10566111;28;2591;-73
2023/11/10 05:04:57;;;;;;;;;;;;;;;5.36;100.00;94386.72;10561269;28;2607;-69
2023/11/10 05:10:03;;;;;;;;;;;;;;;5.34;100.00;94402.22;10560991;28;2712;-68
2023/11/10 05:15:06;;;;;;;;;;;;;;;5.34;100.00;94396.88;10559746;28;2582;-70
2023/11/10 05:20:09;;;;;;;;;;;;;;;5.14;100.00;94395.06;10554878;28;2659;-69
2023/11/10 05:25:12;;;;;;;;;;;;;;;4.98;100.00;94403.41;10558581;28;2528;-69
2023/11/10 05:30:14;;;;;;;;;;;;;;;4.83;100.00;94406.91;10569287;27;2614;-69
2023/11/10 05:35:16;;;;;;;;;;;;;;;4.78;100.00;94415.72;10566124;27;2711;-69
2023/11/10 05:40:20;;;;;;;;;;;;;;;4.83;100.00;94422.88;10575406;27;2837;-71
2023/11/10 05:45:23;;;;;;;;;;;;;;;5.00;100.00;94417.25;10565848;27;4810;-68
2023/11/10 05:50:26;;;;;;;;;;;;;;;5.20;100.00;94425.16;10572406;27;2695;-70
2023/11/10 05:55:28;;;;;;;;;;;;;;;5.41;100.00;94434.69;10568414;27;2600;-69
2023/11/10 06:00:32;;;;;;;;;;;;;;;5.62;100.00;94424.72;10564895;27;2645;-70
2023/11/10 06:05:35;;;;;;;;;;;;;;;5.79;100.00;94424.34;10570202;27;2620;-71
2023/11/10 06:10:37;;;;;;;;;;;;;;;5.90;100.00;94435.75;10566201;27;2633;-70
2023/11/10 06:15:41;;;;;;;;;;;;;;;5.90;100.00;94425.88;10565817;27;2572;-70
2023/11/10 06:20:43;;;;;;;;;;;;;;;6.00;100.00;94425.03;10558941;27;2565;-69
2023/11/10 06:25:45;;;;;;;;;;;;;;;6.02;100.00;94430.09;10562593;27;2604;-70
2023/11/10 06:30:48;;;;;;;;;;;;;;;6.00;100.00;94445.59;10562472;27;2692;-68
2023/11/10 06:35:51;;;;;;;;;;;;;;;5.94;100.00;94456.28;10557383;27;2556;-72
2023/11/10 06:40:53;;;;;;;;;;;;;;;5.97;100.00;94455.72;10556672;27;2611;-71
2023/11/10 06:45:56;;;;;;;;;;;;;;;6.05;100.00;94456.22;10564776;27;4834;-71
2023/11/10 06:50:59;;;;;;;;;;;;;;;6.05;100.00;94449.03;10559091;27;2681;-70
2023/11/10 06:56:03;;;;;;;;;;;;;;;6.12;100.00;94459.38;10557106;27;2697;-71
2023/11/10 07:01:06;;;;;;;;;;;;;;;6.20;100.00;94459.56;10561072;27;2617;-69
2023/11/10 07:06:09;;;;;;;;;;;;;;;6.22;100.00;94464.63;10564570;27;2541;-71
2023/11/10 07:11:12;;;;;;;;;;;;;;;6.39;100.00;94462.38;10560645;27;2517;-71
2023/11/10 07:16:14;;;;;;;;;;;;;;;6.53;100.00;94464.41;10564432;27;2617;-72
2023/11/10 07:21:17;;;;;;;;;;;;;;;6.56;100.00;94461.19;10565613;27;2592;-71
2023/11/10 07:26:20;;;;;;;;;;;;;;;6.65;100.00;94468.31;10571394;27;2553;-69
2023/11/10 07:31:23;;;;;;;;;;;;;;;6.76;100.00;94469.00;10546362;27;2724;-73
2023/11/10 07:36:25;;;;;;;;;;;;;;;7.11;100.00;94461.72;10559733;27;2663;-71
2023/11/10 07:41:28;;;;;;;;;;;;;;;7.34;100.00;94462.81;10560605;27;2704;-72
2023/11/10 07:46:30;;;;;;;;;;;;;;;7.35;100.00;94465.19;10568752;27;4811;-71
2023/11/10 07:51:32;;;;;;;;;;;;;;;7.27;100.00;94468.50;10557604;27;2605;-75
2023/11/10 07:56:35;;;;;;;;;;;;;;;7.37;100.00;94478.28;10562457;27;2604;-75
2023/11/10 08:01:37;;;;;;;;;;;;;;;7.66;100.00;94481.69;10561028;27;2625;-77
2023/11/10 08:06:40;;;;;;;;;;;;;;;8.21;100.00;94479.34;10562737;27;2809;-72
2023/11/10 08:11:42;;;;;;;;;;;;;;;8.41;100.00;94483.63;10561830;27;2632;-71
2023/11/10 08:16:56;;;;;;;;;;;;;;;8.41;100.00;94480.16;10562806;27;2643;-70
2023/11/10 08:22:00;;;;;;;;;;;;;;;8.69;100.00;94484.53;10556305;27;2557;-71
2023/11/10 08:27:02;;;;;;;;;;;;;;;9.11;100.00;94483.56;10557571;27;2581;-71
2023/11/10 08:32:05;;;;;;;;;;;;;;;9.36;100.00;94484.19;10559344;27;2611;-74
2023/11/10 08:37:07;;;;;;;;;;;;;;;9.17;100.00;94493.09;10558200;27;2561;-72
2023/11/10 08:42:09;;;;;;;;;;;;;;;9.21;100.00;94494.09;10560486;27;4799;-72
2023/11/10 08:47:12;;;;;;;;;;;;;;;9.42;100.00;94483.78;10558084;27;2671;-71
2023/11/10 08:52:14;;;;;;;;;;;;;;;9.43;100.00;94504.16;10559635;27;2562;-70
2023/11/10 08:57:17;;;;;;;;;;;;;;;8.94;100.00;94505.53;10559235;28;2621;-70
2023/11/10 09:02:19;;;;;;;;;;;;;;;8.57;100.00;94501.06;10561478;28;2668;-70
2023/11/10 09:07:23;;;;;;;;;;;;;;;8.28;100.00;94498.53;10546366;28;2579;-72
2023/11/10 09:12:25;;;;;;;;;;;;;;;8.12;100.00;94489.09;10563001;28;2660;-68
2023/11/10 09:17:28;;;;;;;;;;;;;;;8.13;100.00;94502.19;10557514;28;2713;-75
2023/11/10 09:22:31;;;;;;;;;;;;;;;8.03;100.00;94512.25;10559609;27;2630;-73
2023/11/10 09:27:34;;;;;;;;;;;;;;;7.99;100.00;94501.31;10560471;28;2510;-69
2023/11/10 09:32:37;;;;;;;;;;;;;;;7.98;100.00;94515.00;10563600;28;2629;-71
2023/11/10 09:37:41;;;;;;;;;;;;;;;7.67;100.00;94506.53;10553587;28;2587;-71
2023/11/10 09:42:43;;;;;;;;;;;;;;;7.71;100.00;94504.91;10555026;28;4854;-70
2023/11/10 09:47:46;;;;;;;;;;;;;;;7.85;100.00;94506.59;10557994;28;2966;-70
2023/11/10 09:52:50;;;;;;;;;;;;;;;7.99;100.00;94497.84;10558617;28;2658;-71
2023/11/10 09:57:54;;;;;;;;;;;;;;;7.84;100.00;94488.16;10548305;28;2708;-69
2023/11/10 10:02:56;;;;;;;;;;;;;;;7.62;100.00;94499.38;10555216;28;2596;-70
2023/11/10 10:08:00;;;;;;;;;;;;;;;7.56;100.00;94503.19;10558064;28;3003;-70
2023/11/10 10:13:02;;;;;;;;;;;;;;;7.71;100.00;94494.22;10556690;27;2660;-70
2023/11/10 10:18:05;;;;;;;;;;;;;;;8.12;100.00;94500.59;10568111;27;2742;-70
2023/11/10 10:23:09;;;;;;;;;;;;;;;8.57;100.00;94484.97;10545283;27;2579;-70
2023/11/10 10:28:17;;;;;;;;;;;;;;;8.90;100.00;94476.94;10566990;27;2581;-69
2023/11/10 10:33:20;;;;;;;;;;;;;;;8.85;100.00;94463.66;10563743;27;2685;-72
2023/11/10 10:38:24;;;;;;;;;;;;;;;9.17;100.00;94450.19;10561946;27;2597;-70
2023/11/10 10:43:27;;;;;;;;;;;;;;;9.55;100.00;94444.66;10546547;27;4866;-71
2023/11/10 10:48:30;;;;;;;;;;;;;;;9.70;100.00;94438.16;10567121;27;2691;-71
2023/11/10 10:53:32;;;;;;;;;;;;;;;9.60;100.00;94423.06;10562242;27;2608;-72
2023/11/10 10:58:35;;;;;;;;;;;;;;;9.82;100.00;94426.91;10564316;27;2624;-71
2023/11/10 11:03:37;;;;;;;;;;;;;;;10.25;100.00;94428.13;10561055;27;2589;-71
2023/11/10 11:08:40;;;;;;;;;;;;;;;10.73;100.00;94406.00;10560789;27;2631;-72
2023/11/10 11:13:42;;;;;;;;;;;;;;;10.51;100.00;94412.22;10566578;27;2697;-72
2023/11/10 11:18:45;;;;;;;;;;;;;;;9.72;100.00;94415.28;10549024;27;2570;-72
2023/11/10 11:23:47;;;;;;;;;;;;;;;9.91;100.00;94425.91;10563584;27;2753;-72
2023/11/10 11:28:50;;;;;;;;;;;;;;;9.67;100.00;94420.78;10560134;27;2594;-72
2023/11/10 11:33:52;;;;;;;;;;;;;;;9.40;100.00;94420.78;10563738;27;2557;-73
2023/11/10 11:38:55;;;;;;;;;;;;;;;9.01;100.00;94430.13;10562095;27;2564;-72
2023/11/10 11:43:58;;;;;;;;;;;;;;;8.82;100.00;94429.38;10561574;27;5290;-72
2023/11/10 11:49:01;;;;;;;;;;;;;;;8.35;100.00;94428.53;10565261;27;2605;-71
2023/11/10 11:54:05;;;;;;;;;;;;;;;8.34;100.00;94432.31;10561283;27;2638;-73
2023/11/10 11:59:07;;;;;;;;;;;;;;;8.30;100.00;94431.28;10556165;27;2581;-74
2023/11/10 12:04:10;;;;;;;;;;;;;;;8.30;100.00;94436.66;10559922;27;2615;-72
2023/11/10 12:09:13;;;;;;;;;;;;;;;8.38;100.00;94431.44;10557055;27;2715;-71
2023/11/10 12:14:16;;;;;;;;;;;;;;;8.61;100.00;94426.28;10562407;27;2635;-67
2023/11/10 12:19:19;;;;;;;;;;;;;;;8.70;100.00;94418.34;10554830;27;2611;-70
2023/11/10 12:24:22;;;;;;;;;;;;;;;8.63;100.00;94419.53;10560647;27;2624;-70
2023/11/10 12:29:26;;;;;;;;;;;;;;;9.03;100.00;94411.06;10559562;27;2556;-71
2023/11/10 12:34:28;;;;;;;;;;;;;;;9.31;100.00;94415.34;10554668;27;2668;-72
2023/11/10 12:39:31;;;;;;;;;;;;;;;9.41;100.00;94414.34;10557909;27;2544;-71
2023/11/10 12:44:33;;;;;;;;;;;;;;;9.46;100.00;94398.94;10559520;27;4755;-71
2023/11/10 12:49:36;;;;;;;;;;;;;;;9.64;100.00;94397.22;10571166;27;2570;-71
2023/11/10 12:54:38;;;;;;;;;;;;;;;9.64;100.00;94394.53;10559052;27;2717;-73
2023/11/10 12:59:42;;;;;;;;;;;;;;;9.61;100.00;94394.38;10554200;27;2635;-73
2023/11/10 13:04:48;;;;;;;;;;;;;;;9.89;100.00;94387.84;10562531;28;2622;-73
2023/11/10 13:09:51;;;;;;;;;;;;;;;9.69;100.00;94377.56;10561462;28;2595;-71
2023/11/10 13:14:53;;;;;;;;;;;;;;;9.67;100.00;94385.91;10552717;28;2631;-71
2023/11/10 13:19:56;;;;;;;;;;;;;;;9.64;100.00;94377.66;10563093;28;2599;-71
2023/11/10 13:24:58;;;;;;;;;;;;;;;9.73;100.00;94375.84;10558868;28;2604;-71
2023/11/10 13:30:03;;;;;;;;;;;;;;;9.75;100.00;94379.03;10544090;28;2644;-72
2023/11/10 13:35:08;;;;;;;;;;;;;;;9.47;100.00;94379.06;10564270;28;2712;-70
2023/11/10 13:40:12;;;;;;;;;;;;;;;9.08;100.00;94384.94;10551872;27;2565;-72
2023/11/10 13:45:15;;;;;;;;;;;;;;;9.06;100.00;94379.09;10562425;28;4792;-72
2023/11/10 13:50:18;;;;;;;;;;;;;;;9.04;100.00;94375.94;10563867;27;2589;-72
2023/11/10 13:55:21;;;;;;;;;;;;;;;9.24;100.00;94379.31;10568454;27;2668;-70
2023/11/10 14:00:23;;;;;;;;;;;;;;;9.53;100.00;94376.28;10559003;27;2763;-71
2023/11/10 14:05:26;;;;;;;;;;;;;;;9.71;100.00;94378.81;10564708;27;2635;-71
2023/11/10 14:10:29;;;;;;;;;;;;;;;9.46;100.00;94382.06;10567921;27;2645;-70
2023/11/10 14:15:31;;;;;;;;;;;;;;;9.32;100.00;94392.00;10564790;27;2645;-70
2023/11/10 14:20:34;;;;;;;;;;;;;;;9.07;100.00;94391.41;10562669;27;2600;-71
2023/11/10 14:25:36;;;;;;;;;;;;;;;8.89;100.00;94392.28;10567591;27;2589;-71
2023/11/10 14:30:39;;;;;;;;;;;;;;;8.68;100.00;94404.47;10564197;27;2633;-71
2023/11/10 14:35:42;;;;;;;;;;;;;;;8.63;100.00;94406.13;10561289;27;2898;-72
2023/11/10 14:40:45;;;;;;;;;;;;;;;8.79;100.00;94392.47;10565775;27;2562;-73
2023/11/10 14:45:50;;;;;;;;;;;;;;;8.74;100.00;94397.94;10564264;27;4830;-72
2023/11/10 14:50:53;;;;;;;;;;;;;;;8.62;100.00;94390.34;10561616;27;2540;-71
2023/11/10 14:55:56;;;;;;;;;;;;;;;8.49;100.00;94386.56;10563948;27;2635;-71
2023/11/10 15:00:58;;;;;;;;;;;;;;;8.42;100.00;94402.22;10544267;27;2624;-74
2023/11/10 15:06:01;;;;;;;;;;;;;;;8.29;100.00;94393.03;10560827;27;2658;-72
2023/11/10 15:11:04;;;;;;;;;;;;;;;8.20;100.00;94400.09;10555732;27;3053;-74
2023/11/10 15:16:06;;;;;;;;;;;;;;;8.02;100.00;94401.75;10558808;27;2624;-74
2023/11/10 15:21:09;;;;;;;;;;;;;;;7.90;100.00;94408.63;10561683;27;3029;-71
2023/11/10 15:26:11;;;;;;;;;;;;;;;7.75;100.00;94396.22;10560822;27;2588;-71
2023/11/10 15:31:13;;;;;;;;;;;;;;;7.72;100.00;94399.50;10563123;27;2751;-72
2023/11/10 15:36:18;;;;;;;;;;;;;;;7.58;100.00;94397.53;10555660;27;2593;-73
2023/11/10 15:41:25;;;;;;;;;;;;;;;7.47;100.00;94396.06;10562228;27;2576;-71
2023/11/10 15:46:28;;;;;;;;;;;;;;;7.37;100.00;94403.41;10562840;27;4602;-71
2023/11/10 15:51:30;;;;;;;;;;;;;;;7.30;100.00;94403.78;10558144;27;2613;-71
2023/11/10 15:56:49;;;;;;;;;;;;;;;7.26;100.00;94410.78;10559748;27;2584;-71
2023/11/10 16:01:52;;;;;;;;;;;;;;;7.23;100.00;94408.66;10555816;27;2708;-71
2023/11/10 16:06:55;;;;;;;;;;;;;;;7.13;100.00;94406.13;10553666;27;2593;-72
2023/11/10 16:11:57;;;;;;;;;;;;;;;7.15;100.00;94412.78;10558786;27;2648;-71
2023/11/10 16:17:01;;;;;;;;;;;;;;;7.08;100.00;94416.88;10558444;27;2544;-72
2023/11/10 16:22:04;;;;;;;;;;;;;;;6.97;100.00;94425.00;10557183;27;2667;-73
2023/11/10 16:27:07;;;;;;;;;;;;;;;6.94;100.00;94433.59;10551529;27;2561;-72
2023/11/10 16:32:10;;;;;;;;;;;;;;;6.87;100.00;94438.47;10556674;27;2681;-71
2023/11/10 16:37:12;;;;;;;;;;;;;;;6.87;100.00;94433.13;10560314;27;2588;-70
2023/11/10 16:42:15;;;;;;;;;;;;;;;6.83;100.00;94434.75;10558608;27;2587;-72
2023/11/10 16:47:19;;;;;;;;;;;;;;;6.76;100.00;94444.97;10553729;27;2945;-72
2023/11/10 16:52:22;;;;;;;;;;;;;;;6.71;100.00;94445.03;10558694;27;2548;-72
2023/11/10 16:57:24;;;;;;;;;;;;;;;6.66;100.00;94443.19;10554949;27;2624;-73
2023/11/10 17:02:28;;;;;;;;;;;;;;;6.57;100.00;94449.44;10550116;28;2744;-73
2023/11/10 17:07:46;;;;;;;;;;;;;;;6.50;100.00;94449.75;10559688;28;2656;-73
2023/11/10 17:12:49;;;;;;;;;;;;;;;6.54;100.00;94444.63;10567240;28;2616;-74
2023/11/10 17:17:51;;;;;;;;;;;;;;;6.44;100.00;94448.19;10560305;28;2679;-74
2023/11/10 17:22:54;;;;;;;;;;;;;;;6.43;100.00;94449.28;10560625;27;2688;-74
2023/11/10 17:27:56;;;;;;;;;;;;;;;6.40;100.00;94445.28;10563580;27;2588;-77
2023/11/10 17:33:02;;;;;;;;;;;;;;;6.32;100.00;94451.22;10551701;27;2729;-72
2023/11/10 17:38:04;;;;;;;;;;;;;;;6.25;100.00;94457.97;10572379;27;2588;-73
2023/11/10 17:43:07;;;;;;;;;;;;;;;6.18;100.00;94453.72;10570302;27;4834;-71
2023/11/10 17:48:13;;;;;;;;;;;;;;;6.17;100.00;94451.31;10570545;27;2605;-71
2023/11/10 17:53:16;;;;;;;;;;;;;;;6.14;100.00;94462.56;10569810;27;2544;-71
2023/11/10 17:58:19;;;;;;;;;;;;;;;6.17;100.00;94467.31;10570302;27;2604;-73
2023/11/10 18:03:22;;;;;;;;;;;;;;;6.14;100.00;94467.91;10576583;27;2649;-72
2023/11/10 18:08:24;;;;;;;;;;;;;;;6.11;100.00;94473.81;10568987;27;2872;-72
2023/11/10 18:13:27;;;;;;;;;;;;;;;5.94;100.00;94477.63;10575071;27;2568;-72
2023/11/10 18:18:32;;;;;;;;;;;;;;;5.80;100.00;94471.28;10574374;27;2671;-71
2023/11/10 18:23:35;;;;;;;;;;;;;;;5.71;100.00;94475.56;10571370;27;2608;-71
2023/11/10 18:28:37;;;;;;;;;;;;;;;5.63;100.00;94484.94;10577343;27;2544;-72
2023/11/10 18:33:41;;;;;;;;;;;;;;;5.58;100.00;94492.97;10572238;27;2659;-71
2023/11/10 18:38:43;;;;;;;;;;;;;;;5.51;100.00;94497.00;10573322;27;2657;-71
2023/11/10 18:43:45;;;;;;;;;;;;;;;5.51;100.00;94481.00;10577588;27;4766;-71
2023/11/10 18:48:48;;;;;;;;;;;;;;;5.37;100.00;94492.25;10572699;27;2623;-72
2023/11/10 18:53:51;;;;;;;;;;;;;;;5.31;100.00;94488.00;10571401;27;2727;-72
2023/11/10 18:58:53;;;;;;;;;;;;;;;5.36;100.00;94488.00;10569270;27;2627;-72
2023/11/10 19:03:57;;;;;;;;;;;;;;;5.21;100.00;94492.56;10548686;27;2723;-73
2023/11/10 19:08:59;;;;;;;;;;;;;;;5.14;100.00;94492.84;10567435;27;2651;-72
2023/11/10 19:14:02;;;;;;;;;;;;;;;5.00;100.00;94505.94;10569186;27;2677;-73
2023/11/10 19:19:04;;;;;;;;;;;;;;;5.05;100.00;94505.13;10569261;27;2710;-72
2023/11/10 19:24:09;;;;;;;;;;;;;;;5.03;100.00;94500.06;10568963;27;2584;-72
2023/11/10 19:29:12;;;;;;;;;;;;;;;5.07;100.00;94502.97;10537883;27;2733;-71
2023/11/10 19:34:15;;;;;;;;;;;;;;;5.11;100.00;94504.84;10567867;28;2242;-73
2023/11/10 19:39:18;;;;;;;;;;;;;;;5.06;100.00;94504.06;10568985;28;1913;-73
2023/11/10 19:44:20;;;;;;;;;;;;;;;5.10;100.00;94503.25;10571492;28;4831;-71
2023/11/10 19:49:23;;;;;;;;;;;;;;;5.21;100.00;94501.34;10562543;28;2015;-72
2023/11/10 19:54:26;;;;;;;;;;;;;;;5.37;100.00;94496.78;10564275;28;1472;-72
2023/11/10 19:59:31;;;;;;;;;;;;;;;5.32;100.00;94500.25;10564869;28;1967;-73
2023/11/10 20:04:33;;;;;;;;;;;;;;;5.31;100.00;94498.66;10561415;27;1479;-74
2023/11/10 20:09:36;;;;;;;;;;;;;;;5.24;100.00;94492.81;10544538;27;1589;-71
2023/11/10 20:14:38;;;;;;;;;;;;;;;5.22;100.00;94489.66;10566380;27;1612;-71
2023/11/10 20:19:41;;;;;;;;;;;;;;;5.27;100.00;94496.81;10561907;27;1917;-72
2023/11/10 20:24:44;;;;;;;;;;;;;;;5.29;100.00;94497.34;10560126;28;2571;-71
2023/11/10 20:29:47;;;;;;;;;;;;;;;5.23;100.00;94496.56;10548426;28;1909;-70
2023/11/10 20:34:50;;;;;;;;;;;;;;;5.17;100.00;94481.66;10571092;27;1511;-69
2023/11/10 20:39:58;;;;;;;;;;;;;;;5.13;100.00;94475.28;10565540;27;1914;-73
2023/11/10 20:45:00;;;;;;;;;;;;;;;5.07;100.00;94466.50;10564616;28;4834;-72
2023/11/10 20:50:03;;;;;;;;;;;;;;;4.97;100.00;94465.75;10563833;28;1589;-72
2023/11/10 20:55:06;;;;;;;;;;;;;;;4.86;100.00;94452.44;10564241;27;2548;-74
2023/11/10 21:00:09;;;;;;;;;;;;;;;4.83;100.00;94455.63;10558239;27;2596;-72
2023/11/10 21:05:14;;;;;;;;;;;;;;;4.80;100.00;94458.84;10559226;27;2790;-74
2023/11/10 21:10:16;;;;;;;;;;;;;;;4.82;100.00;94450.56;10561357;28;2549;-73
2023/11/10 21:15:19;;;;;;;;;;;;;;;4.79;100.00;94446.59;10561940;28;2584;-73
2023/11/10 21:20:22;;;;;;;;;;;;;;;4.82;100.00;94435.41;10560142;28;2721;-73
2023/11/10 21:25:25;;;;;;;;;;;;;;;4.82;100.00;94432.72;10559467;28;2601;-75
2023/11/10 21:30:27;;;;;;;;;;;;;;;4.81;100.00;94427.69;10558871;28;2635;-74
2023/11/10 21:35:29;;;;;;;;;;;;;;;4.83;100.00;94415.69;10558201;28;2717;-74
2023/11/10 21:40:32;;;;;;;;;;;;;;;4.92;100.00;94412.50;10557527;27;2658;-74
2023/11/10 21:45:39;;;;;;;;;;;;;;;4.96;100.00;94400.22;10562134;28;2609;-75
2023/11/10 21:50:41;;;;;;;;;;;;;;;4.92;100.00;94388.53;10558118;28;2718;-74
2023/11/10 21:55:44;;;;;;;;;;;;;;;4.82;100.00;94395.47;10564322;27;2782;-73
2023/11/10 22:00:47;;;;;;;;;;;;;;;4.82;100.00;94382.16;10561355;28;2628;-73
2023/11/10 22:05:49;;;;;;;;;;;;;;;4.67;100.00;94374.22;10561466;28;2648;-72
2023/11/10 22:10:51;;;;;;;;;;;;;;;4.59;100.00;94370.25;10572634;27;2718;-72
2023/11/10 22:15:54;;;;;;;;;;;;;;;4.57;100.00;94371.56;10569231;27;2778;-72
2023/11/10 22:20:56;;;;;;;;;;;;;;;4.51;100.00;94364.66;10572651;27;2564;-72
2023/11/10 22:26:01;;;;;;;;;;;;;;;4.42;100.00;94358.31;10571677;27;2760;-75
2023/11/10 22:31:03;;;;;;;;;;;;;;;4.37;100.00;94353.00;10563955;27;2592;-71
2023/11/10 22:36:07;;;;;;;;;;;;;;;4.30;100.00;94351.41;10563743;27;2632;-73
2023/11/10 22:41:13;;;;;;;;;;;;;;;4.23;100.00;94350.09;10562423;27;2710;-72
2023/11/10 22:46:16;;;;;;;;;;;;;;;4.11;100.00;94345.06;10551164;27;4819;-71
2023/11/10 22:51:18;;;;;;;;;;;;;;;4.01;100.00;94345.06;10568084;27;2715;-71
2023/11/10 22:56:22;;;;;;;;;;;;;;;4.00;100.00;94341.59;10564716;27;2613;-72
2023/11/10 23:01:27;;;;;;;;;;;;;;;4.05;100.00;94340.81;10559308;27;2648;-73
2023/11/10 23:06:30;;;;;;;;;;;;;;;4.02;100.00;94334.16;10565528;27;2628;-72
2023/11/10 23:11:32;;;;;;;;;;;;;;;4.12;100.00;94336.00;10572332;27;2641;-75
2023/11/10 23:16:35;;;;;;;;;;;;;;;4.26;100.00;94330.94;10564782;27;2628;-76
2023/11/10 23:21:39;;;;;;;;;;;;;;;4.44;100.00;94322.38;10562493;27;2622;-74
2023/11/10 23:26:42;;;;;;;;;;;;;;;4.52;100.00;94313.84;10571307;27;2667;-74
2023/11/10 23:31:44;;;;;;;;;;;;;;;4.38;100.00;94304.03;10566435;27;2687;-71
2023/11/10 23:36:47;;;;;;;;;;;;;;;4.28;100.00;94295.03;10570660;27;2676;-72
2023/11/10 23:41:50;;;;;;;;;;;;;;;4.26;100.00;94304.31;10568293;27;2647;-71
2023/11/10 23:46:53;;;;;;;;;;;;;;;4.11;100.00;94307.81;10568330;27;5885;-73
2023/11/10 23:51:56;;;;;;;;;;;;;;;4.02;100.00;94304.91;10565316;27;2714;-69
2023/11/10 23:56:59;;;;;;;;;;;;;;;3.83;100.00;94303.09;10567839;27;2635;-71
